sensor_id;sensor_type;location;lat;lon;timestamp;pressure;altitude;pressure_sealevel;temperature;humidity
37202;BME280;37799;52.390;6.136;2024-01-30T00:00:05;102590.47;;;6.87;100.00
37202;BME280;37799;52.390;6.136;2024-01-30T00:02:32;102593.78;;;6.80;100.00
37202;BME280;37799;52.390;6.136;2024-01-30T00:04:57;102600.63;;;6.78;100.00
37202;BME280;37799;52.390;6.136;2024-01-30T00:07:22;102603.38;;;6.89;100.00
37202;BME280;37799;52.390;6.136;2024-01-30T00:09:47;102602.03;;;7.10;100.00
37202;BME280;37799;52.390;6.136;2024-01-30T00:12:15;102599.16;;;6.92;100.00
37202;BME280;37799;52.390;6.136;2024-01-30T00:14:42;102598.53;;;7.05;100.00
37202;BME280;37799;52.390;6.136;2024-01-30T00:17:08;102609.66;;;7.04;100.00
37202;BME280;37799;52.390;6.136;2024-01-30T00:19:33;102608.09;;;7.14;100.00
37202;BME280;37799;52.390;6.136;2024-01-30T00:21:59;102609.34;;;6.86;100.00
37202;BME280;37799;52.390;6.136;2024-01-30T00:24:24;102607.63;;;6.87;100.00
37202;BME280;37799;52.390;6.136;2024-01-30T00:26:49;102599.69;;;6.74;100.00
37202;BME280;37799;52.390;6.136;2024-01-30T00:29:15;102609.97;;;6.74;100.00
37202;BME280;37799;52.390;6.136;2024-01-30T00:31:44;102593.44;;;7.10;100.00
37202;BME280;37799;52.390;6.136;2024-01-30T00:34:10;102600.69;;;6.81;100.00
37202;BME280;37799;52.390;6.136;2024-01-30T00:36:35;102604.19;;;6.86;100.00
37202;BME280;37799;52.390;6.136;2024-01-30T00:39:00;102597.44;;;6.91;100.00
37202;BME280;37799;52.390;6.136;2024-01-30T00:41:26;102588.84;;;6.92;100.00
37202;BME280;37799;52.390;6.136;2024-01-30T00:43:51;102594.31;;;7.10;100.00
37202;BME280;37799;52.390;6.136;2024-01-30T00:46:17;102597.63;;;7.03;100.00
37202;BME280;37799;52.390;6.136;2024-01-30T00:48:42;102594.16;;;7.01;100.00
37202;BME280;37799;52.390;6.136;2024-01-30T00:51:07;102593.16;;;6.92;100.00
37202;BME280;37799;52.390;6.136;2024-01-30T00:53:33;102598.00;;;6.76;100.00
37202;BME280;37799;52.390;6.136;2024-01-30T00:55:58;102587.88;;;6.87;100.00
37202;BME280;37799;52.390;6.136;2024-01-30T00:58:23;102597.06;;;6.71;100.00
37202;BME280;37799;52.390;6.136;2024-01-30T01:00:48;102587.66;;;6.73;100.00
37202;BME280;37799;52.390;6.136;2024-01-30T01:03:14;102590.19;;;6.72;100.00
37202;BME280;37799;52.390;6.136;2024-01-30T01:05:39;102583.38;;;6.75;100.00
37202;BME280;37799;52.390;6.136;2024-01-30T01:08:05;102592.38;;;6.97;100.00
37202;BME280;37799;52.390;6.136;2024-01-30T01:10:30;102584.69;;;7.00;100.00
37202;BME280;37799;52.390;6.136;2024-01-30T01:12:55;102586.28;;;6.92;100.00
37202;BME280;37799;52.390;6.136;2024-01-30T01:15:21;102594.91;;;6.94;100.00
37202;BME280;37799;52.390;6.136;2024-01-30T01:17:46;102588.72;;;6.86;100.00
37202;BME280;37799;52.390;6.136;2024-01-30T01:20:11;102585.19;;;6.78;100.00
37202;BME280;37799;52.390;6.136;2024-01-30T01:22:37;102583.41;;;6.77;100.00
37202;BME280;37799;52.390;6.136;2024-01-30T01:25:04;102577.31;;;6.70;100.00
37202;BME280;37799;52.390;6.136;2024-01-30T01:27:32;102575.88;;;6.86;100.00
37202;BME280;37799;52.390;6.136;2024-01-30T01:29:58;102579.09;;;6.74;100.00
37202;BME280;37799;52.390;6.136;2024-01-30T01:32:23;102571.16;;;6.62;100.00
37202;BME280;37799;52.390;6.136;2024-01-30T01:34:48;102573.19;;;6.80;100.00
37202;BME280;37799;52.390;6.136;2024-01-30T01:37:13;102582.03;;;6.96;100.00
37202;BME280;37799;52.390;6.136;2024-01-30T01:39:39;102571.34;;;6.73;100.00
37202;BME280;37799;52.390;6.136;2024-01-30T01:42:04;102583.63;;;6.89;100.00
37202;BME280;37799;52.390;6.136;2024-01-30T01:44:29;102577.72;;;6.93;100.00
37202;BME280;37799;52.390;6.136;2024-01-30T01:46:55;102569.81;;;6.84;100.00
37202;BME280;37799;52.390;6.136;2024-01-30T01:49:24;102569.78;;;6.81;100.00
37202;BME280;37799;52.390;6.136;2024-01-30T01:51:51;102573.00;;;6.69;100.00
37202;BME280;37799;52.390;6.136;2024-01-30T01:54:18;102565.66;;;6.91;100.00
37202;BME280;37799;52.390;6.136;2024-01-30T01:56:44;102563.16;;;6.95;100.00
37202;BME280;37799;52.390;6.136;2024-01-30T01:59:09;102562.81;;;6.77;100.00
37202;BME280;37799;52.390;6.136;2024-01-30T02:01:36;102561.91;;;6.73;100.00
37202;BME280;37799;52.390;6.136;2024-01-30T02:04:02;102562.91;;;6.80;100.00
37202;BME280;37799;52.390;6.136;2024-01-30T02:06:28;102558.84;;;6.94;100.00
37202;BME280;37799;52.390;6.136;2024-01-30T02:08:56;102566.31;;;6.79;100.00
37202;BME280;37799;52.390;6.136;2024-01-30T02:11:22;102559.88;;;7.05;100.00
37202;BME280;37799;52.390;6.136;2024-01-30T02:13:48;102555.53;;;7.03;100.00
37202;BME280;37799;52.390;6.136;2024-01-30T02:16:14;102549.38;;;6.93;100.00
37202;BME280;37799;52.390;6.136;2024-01-30T02:18:39;102550.88;;;6.79;100.00
37202;BME280;37799;52.390;6.136;2024-01-30T02:21:10;102543.22;;;6.84;100.00
37202;BME280;37799;52.390;6.136;2024-01-30T02:23:36;102546.94;;;7.02;100.00
37202;BME280;37799;52.390;6.136;2024-01-30T02:26:01;102546.22;;;7.09;100.00
37202;BME280;37799;52.390;6.136;2024-01-30T02:28:27;102542.53;;;6.95;100.00
37202;BME280;37799;52.390;6.136;2024-01-30T02:30:55;102535.75;;;7.00;100.00
37202;BME280;37799;52.390;6.136;2024-01-30T02:33:20;102545.00;;;6.89;100.00
37202;BME280;37799;52.390;6.136;2024-01-30T02:35:47;102537.03;;;6.74;100.00
37202;BME280;37799;52.390;6.136;2024-01-30T02:38:12;102546.72;;;6.89;100.00
37202;BME280;37799;52.390;6.136;2024-01-30T02:40:38;102548.38;;;6.85;100.00
37202;BME280;37799;52.390;6.136;2024-01-30T02:43:04;102539.94;;;6.94;100.00
37202;BME280;37799;52.390;6.136;2024-01-30T02:45:30;102534.63;;;6.83;100.00
37202;BME280;37799;52.390;6.136;2024-01-30T02:47:55;102541.44;;;6.79;100.00
37202;BME280;37799;52.390;6.136;2024-01-30T02:50:20;102533.75;;;6.83;100.00
37202;BME280;37799;52.390;6.136;2024-01-30T02:52:46;102536.19;;;6.75;100.00
37202;BME280;37799;52.390;6.136;2024-01-30T02:55:11;102528.78;;;6.93;100.00
37202;BME280;37799;52.390;6.136;2024-01-30T02:57:37;102528.81;;;6.96;100.00
37202;BME280;37799;52.390;6.136;2024-01-30T03:00:02;102519.84;;;6.73;100.00
37202;BME280;37799;52.390;6.136;2024-01-30T03:02:29;102523.69;;;6.96;100.00
37202;BME280;37799;52.390;6.136;2024-01-30T03:04:54;102524.63;;;7.03;100.00
37202;BME280;37799;52.390;6.136;2024-01-30T03:07:20;102528.16;;;7.08;100.00
37202;BME280;37799;52.390;6.136;2024-01-30T03:09:45;102524.50;;;6.94;100.00
37202;BME280;37799;52.390;6.136;2024-01-30T03:12:11;102528.63;;;6.84;100.00
37202;BME280;37799;52.390;6.136;2024-01-30T03:14:36;102522.53;;;6.77;100.00
37202;BME280;37799;52.390;6.136;2024-01-30T03:17:01;102525.13;;;6.79;100.00
37202;BME280;37799;52.390;6.136;2024-01-30T03:19:28;102520.81;;;6.78;100.00
37202;BME280;37799;52.390;6.136;2024-01-30T03:21:53;102513.22;;;6.87;100.00
37202;BME280;37799;52.390;6.136;2024-01-30T03:24:18;102510.59;;;6.84;100.00
37202;BME280;37799;52.390;6.136;2024-01-30T03:26:44;102515.69;;;6.79;100.00
37202;BME280;37799;52.390;6.136;2024-01-30T03:29:09;102514.81;;;6.79;100.00
37202;BME280;37799;52.390;6.136;2024-01-30T03:31:34;102511.50;;;6.86;100.00
37202;BME280;37799;52.390;6.136;2024-01-30T03:34:01;102503.69;;;6.80;100.00
37202;BME280;37799;52.390;6.136;2024-01-30T03:36:26;102501.28;;;6.91;100.00
37202;BME280;37799;52.390;6.136;2024-01-30T03:38:52;102501.09;;;6.80;100.00
37202;BME280;37799;52.390;6.136;2024-01-30T03:41:17;102504.53;;;6.79;100.00
37202;BME280;37799;52.390;6.136;2024-01-30T03:43:42;102501.28;;;6.91;100.00
37202;BME280;37799;52.390;6.136;2024-01-30T03:46:08;102498.06;;;7.05;100.00
37202;BME280;37799;52.390;6.136;2024-01-30T03:48:33;102491.06;;;6.98;100.00
37202;BME280;37799;52.390;6.136;2024-01-30T03:50:58;102482.34;;;6.89;100.00
37202;BME280;37799;52.390;6.136;2024-01-30T03:53:24;102482.00;;;7.23;100.00
37202;BME280;37799;52.390;6.136;2024-01-30T03:55:49;102491.38;;;7.17;100.00
37202;BME280;37799;52.390;6.136;2024-01-30T03:58:15;102484.44;;;7.14;100.00
37202;BME280;37799;52.390;6.136;2024-01-30T04:00:40;102483.50;;;7.07;100.00
37202;BME280;37799;52.390;6.136;2024-01-30T04:03:06;102471.44;;;7.05;100.00
37202;BME280;37799;52.390;6.136;2024-01-30T04:05:31;102463.81;;;7.13;100.00
37202;BME280;37799;52.390;6.136;2024-01-30T04:07:57;102468.25;;;7.23;100.00
37202;BME280;37799;52.390;6.136;2024-01-30T04:10:23;102463.84;;;7.16;100.00
37202;BME280;37799;52.390;6.136;2024-01-30T04:12:48;102472.50;;;7.18;100.00
37202;BME280;37799;52.390;6.136;2024-01-30T04:15:14;102460.50;;;7.21;100.00
37202;BME280;37799;52.390;6.136;2024-01-30T04:17:39;102460.53;;;7.23;100.00
37202;BME280;37799;52.390;6.136;2024-01-30T04:20:05;102452.91;;;7.30;100.00
37202;BME280;37799;52.390;6.136;2024-01-30T04:22:31;102458.09;;;7.32;100.00
37202;BME280;37799;52.390;6.136;2024-01-30T04:24:56;102470.09;;;7.31;100.00
37202;BME280;37799;52.390;6.136;2024-01-30T04:27:21;102460.66;;;7.32;100.00
37202;BME280;37799;52.390;6.136;2024-01-30T04:29:47;102457.91;;;7.18;100.00
37202;BME280;37799;52.390;6.136;2024-01-30T04:32:12;102461.50;;;7.29;100.00
37202;BME280;37799;52.390;6.136;2024-01-30T04:34:37;102458.84;;;7.25;100.00
37202;BME280;37799;52.390;6.136;2024-01-30T04:37:03;102452.91;;;7.30;100.00
37202;BME280;37799;52.390;6.136;2024-01-30T04:39:28;102453.00;;;7.38;100.00
37202;BME280;37799;52.390;6.136;2024-01-30T04:41:53;102449.81;;;7.57;100.00
37202;BME280;37799;52.390;6.136;2024-01-30T04:44:19;102452.13;;;7.37;100.00
37202;BME280;37799;52.390;6.136;2024-01-30T04:46:44;102455.50;;;7.32;100.00
37202;BME280;37799;52.390;6.136;2024-01-30T04:49:10;102461.44;;;7.26;100.00
37202;BME280;37799;52.390;6.136;2024-01-30T04:51:35;102466.53;;;7.22;100.00
37202;BME280;37799;52.390;6.136;2024-01-30T04:54:00;102463.91;;;7.19;100.00
37202;BME280;37799;52.390;6.136;2024-01-30T04:56:25;102475.09;;;7.21;100.00
37202;BME280;37799;52.390;6.136;2024-01-30T04:58:51;102475.16;;;7.25;100.00
37202;BME280;37799;52.390;6.136;2024-01-30T05:01:17;102475.09;;;7.19;100.00
37202;BME280;37799;52.390;6.136;2024-01-30T05:03:42;102468.25;;;7.21;100.00
37202;BME280;37799;52.390;6.136;2024-01-30T05:06:07;102466.50;;;7.20;100.00
37202;BME280;37799;52.390;6.136;2024-01-30T05:08:33;102460.31;;;7.07;100.00
37202;BME280;37799;52.390;6.136;2024-01-30T05:11:02;102455.06;;;7.01;100.00
37202;BME280;37799;52.390;6.136;2024-01-30T05:13:31;102465.38;;;7.01;100.00
37202;BME280;37799;52.390;6.136;2024-01-30T05:15:57;102455.94;;;7.02;100.00
37202;BME280;37799;52.390;6.136;2024-01-30T05:18:22;102451.53;;;6.95;100.00
37202;BME280;37799;52.390;6.136;2024-01-30T05:20:50;102437.88;;;7.00;100.00
37202;BME280;37799;52.390;6.136;2024-01-30T05:23:15;102438.88;;;7.10;100.00
37202;BME280;37799;52.390;6.136;2024-01-30T05:25:41;102430.50;;;7.26;100.00
37202;BME280;37799;52.390;6.136;2024-01-30T05:28:06;102442.25;;;7.04;100.00
37202;BME280;37799;52.390;6.136;2024-01-30T05:30:31;102444.03;;;7.10;100.00
37202;BME280;37799;52.390;6.136;2024-01-30T05:32:57;102457.13;;;7.27;100.00
37202;BME280;37799;52.390;6.136;2024-01-30T05:35:22;102449.28;;;7.16;100.00
37202;BME280;37799;52.390;6.136;2024-01-30T05:37:48;102440.75;;;7.22;100.00
37202;BME280;37799;52.390;6.136;2024-01-30T05:40:14;102448.59;;;7.29;100.00
37202;BME280;37799;52.390;6.136;2024-01-30T05:42:39;102461.38;;;7.22;100.00
37202;BME280;37799;52.390;6.136;2024-01-30T05:45:05;102462.13;;;7.15;100.00
37202;BME280;37799;52.390;6.136;2024-01-30T05:47:30;102461.91;;;6.99;100.00
37202;BME280;37799;52.390;6.136;2024-01-30T05:49:56;102468.94;;;7.09;100.00
37202;BME280;37799;52.390;6.136;2024-01-30T05:52:21;102462.75;;;7.00;100.00
37202;BME280;37799;52.390;6.136;2024-01-30T05:54:46;102468.97;;;7.13;100.00
37202;BME280;37799;52.390;6.136;2024-01-30T05:57:12;102462.09;;;7.12;100.00
37202;BME280;37799;52.390;6.136;2024-01-30T05:59:37;102451.75;;;7.08;100.00
37202;BME280;37799;52.390;6.136;2024-01-30T06:02:02;102462.13;;;7.15;100.00
37202;BME280;37799;52.390;6.136;2024-01-30T06:04:28;102453.66;;;7.22;100.00
37202;BME280;37799;52.390;6.136;2024-01-30T06:06:53;102453.53;;;7.16;100.00
37202;BME280;37799;52.390;6.136;2024-01-30T06:09:18;102439.06;;;7.24;100.00
37202;BME280;37799;52.390;6.136;2024-01-30T06:11:44;102438.22;;;7.25;100.00
37202;BME280;37799;52.390;6.136;2024-01-30T06:14:10;102430.59;;;7.32;100.00
37202;BME280;37799;52.390;6.136;2024-01-30T06:16:35;102425.53;;;7.42;100.00
37202;BME280;37799;52.390;6.136;2024-01-30T06:19:00;102422.00;;;7.32;100.00
37202;BME280;37799;52.390;6.136;2024-01-30T06:21:26;102428.19;;;7.46;100.00
37202;BME280;37799;52.390;6.136;2024-01-30T06:23:51;102422.91;;;7.37;100.00
37202;BME280;37799;52.390;6.136;2024-01-30T06:26:16;102429.06;;;7.47;100.00
37202;BME280;37799;52.390;6.136;2024-01-30T06:28:42;102419.69;;;7.53;100.00
37202;BME280;37799;52.390;6.136;2024-01-30T06:31:07;102423.97;;;7.53;100.00
37202;BME280;37799;52.390;6.136;2024-01-30T06:33:32;102440.28;;;7.53;100.00
37202;BME280;37799;52.390;6.136;2024-01-30T06:35:58;102431.66;;;7.48;100.00
37202;BME280;37799;52.390;6.136;2024-01-30T06:38:23;102443.78;;;7.55;100.00
37202;BME280;37799;52.390;6.136;2024-01-30T06:40:49;102446.41;;;7.60;100.00
37202;BME280;37799;52.390;6.136;2024-01-30T06:43:14;102436.13;;;7.63;100.00
37202;BME280;37799;52.390;6.136;2024-01-30T06:45:39;102426.78;;;7.73;100.00
37202;BME280;37799;52.390;6.136;2024-01-30T06:48:05;102437.09;;;7.73;100.00
37202;BME280;37799;52.390;6.136;2024-01-30T06:50:31;102435.41;;;7.75;100.00
37202;BME280;37799;52.390;6.136;2024-01-30T06:52:56;102431.81;;;7.60;100.00
37202;BME280;37799;52.390;6.136;2024-01-30T06:55:21;102436.09;;;7.61;100.00
37202;BME280;37799;52.390;6.136;2024-01-30T06:57:47;102443.88;;;7.64;100.00
37202;BME280;37799;52.390;6.136;2024-01-30T07:00:12;102443.09;;;7.70;100.00
37202;BME280;37799;52.390;6.136;2024-01-30T07:02:38;102443.03;;;7.67;100.00
37202;BME280;37799;52.390;6.136;2024-01-30T07:05:04;102437.13;;;7.76;100.00
37202;BME280;37799;52.390;6.136;2024-01-30T07:07:29;102435.28;;;7.65;100.00
37202;BME280;37799;52.390;6.136;2024-01-30T07:09:54;102436.44;;;7.90;100.00
37202;BME280;37799;52.390;6.136;2024-01-30T07:12:23;102432.06;;;7.82;100.00
37202;BME280;37799;52.390;6.136;2024-01-30T07:14:49;102437.25;;;7.85;100.00
37202;BME280;37799;52.390;6.136;2024-01-30T07:17:15;102436.44;;;7.93;100.00
37202;BME280;37799;52.390;6.136;2024-01-30T07:19:40;102438.16;;;7.90;100.00
37202;BME280;37799;52.390;6.136;2024-01-30T07:22:06;102440.75;;;7.93;100.00
37202;BME280;37799;52.390;6.136;2024-01-30T07:24:31;102438.94;;;7.81;100.00
37202;BME280;37799;52.390;6.136;2024-01-30T07:26:56;102443.25;;;7.84;100.00
37202;BME280;37799;52.390;6.136;2024-01-30T07:29:22;102458.88;;;7.97;100.00
37202;BME280;37799;52.390;6.136;2024-01-30T07:31:47;102457.06;;;7.92;100.00
37202;BME280;37799;52.390;6.136;2024-01-30T07:34:12;102466.41;;;7.81;100.00
37202;BME280;37799;52.390;6.136;2024-01-30T07:36:38;102455.44;;;7.97;100.00
37202;BME280;37799;52.390;6.136;2024-01-30T07:39:03;102445.84;;;7.84;100.00
37202;BME280;37799;52.390;6.136;2024-01-30T07:41:28;102450.34;;;8.05;100.00
37202;BME280;37799;52.390;6.136;2024-01-30T07:43:54;102447.72;;;8.00;100.00
37202;BME280;37799;52.390;6.136;2024-01-30T07:46:19;102453.72;;;7.97;100.00
37202;BME280;37799;52.390;6.136;2024-01-30T07:48:44;102456.31;;;7.99;100.00
37202;BME280;37799;52.390;6.136;2024-01-30T07:51:10;102461.44;;;7.96;100.00
37202;BME280;37799;52.390;6.136;2024-01-30T07:53:35;102459.81;;;8.07;100.00
37202;BME280;37799;52.390;6.136;2024-01-30T07:56:00;102450.44;;;8.14;100.00
37202;BME280;37799;52.390;6.136;2024-01-30T07:58:26;102464.28;;;8.20;100.00
37202;BME280;37799;52.390;6.136;2024-01-30T08:00:53;102469.44;;;8.20;100.00
37202;BME280;37799;52.390;6.136;2024-01-30T08:03:18;102475.50;;;8.27;100.00
37202;BME280;37799;52.390;6.136;2024-01-30T08:05:44;102465.19;;;8.27;100.00
37202;BME280;37799;52.390;6.136;2024-01-30T08:08:09;102472.91;;;8.25;100.00
37202;BME280;37799;52.390;6.136;2024-01-30T08:10:34;102480.84;;;8.41;100.00
37202;BME280;37799;52.390;6.136;2024-01-30T08:12:59;102461.97;;;8.48;100.00
37202;BME280;37799;52.390;6.136;2024-01-30T08:15:25;102484.38;;;8.49;100.00
37202;BME280;37799;52.390;6.136;2024-01-30T08:17:50;102477.50;;;8.54;100.00
37202;BME280;37799;52.390;6.136;2024-01-30T08:20:20;102478.28;;;8.44;100.00
37202;BME280;37799;52.390;6.136;2024-01-30T08:22:46;102473.28;;;8.62;100.00
37202;BME280;37799;52.390;6.136;2024-01-30T08:25:11;102470.75;;;8.71;100.00
37202;BME280;37799;52.390;6.136;2024-01-30T08:27:37;102483.59;;;8.61;100.00
37202;BME280;37799;52.390;6.136;2024-01-30T08:30:05;102487.91;;;8.60;100.00
37202;BME280;37799;52.390;6.136;2024-01-30T08:32:31;102491.38;;;8.62;100.00
37202;BME280;37799;52.390;6.136;2024-01-30T08:34:56;102483.66;;;8.71;100.00
37202;BME280;37799;52.390;6.136;2024-01-30T08:37:22;102483.84;;;8.90;100.00
37202;BME280;37799;52.390;6.136;2024-01-30T08:39:47;102483.78;;;8.85;100.00
37202;BME280;37799;52.390;6.136;2024-01-30T08:42:12;102493.22;;;8.81;100.00
37202;BME280;37799;52.390;6.136;2024-01-30T08:44:38;102488.19;;;8.98;100.00
37202;BME280;37799;52.390;6.136;2024-01-30T08:47:04;102492.53;;;9.04;100.00
37202;BME280;37799;52.390;6.136;2024-01-30T08:49:29;102500.28;;;9.04;100.00
37202;BME280;37799;52.390;6.136;2024-01-30T08:51:54;102490.03;;;9.18;100.00
37202;BME280;37799;52.390;6.136;2024-01-30T08:54:20;102501.38;;;9.41;100.00
37202;BME280;37799;52.390;6.136;2024-01-30T08:56:45;102490.19;;;9.40;100.00
37202;BME280;37799;52.390;6.136;2024-01-30T08:59:10;102485.91;;;9.49;100.00
37202;BME280;37799;52.390;6.136;2024-01-30T09:01:36;102488.53;;;9.56;100.00
37202;BME280;37799;52.390;6.136;2024-01-30T09:04:01;102490.25;;;9.59;100.00
37202;BME280;37799;52.390;6.136;2024-01-30T09:06:27;102502.38;;;9.69;100.00
37202;BME280;37799;52.390;6.136;2024-01-30T09:08:53;102495.50;;;9.69;100.00
37202;BME280;37799;52.390;6.136;2024-01-30T09:11:19;102502.47;;;9.93;100.00
37202;BME280;37799;52.390;6.136;2024-01-30T09:13:44;102501.63;;;10.00;100.00
37202;BME280;37799;52.390;6.136;2024-01-30T09:16:09;102501.69;;;10.17;100.00
37202;BME280;37799;52.390;6.136;2024-01-30T09:18:35;102501.75;;;10.32;100.00
37202;BME280;37799;52.390;6.136;2024-01-30T09:21:00;102500.91;;;10.44;100.00
37202;BME280;37799;52.390;6.136;2024-01-30T09:23:27;102505.19;;;10.34;100.00
37202;BME280;37799;52.390;6.136;2024-01-30T09:25:53;102500.03;;;10.31;100.00
37202;BME280;37799;52.390;6.136;2024-01-30T09:28:18;102500.03;;;10.42;100.00
37202;BME280;37799;52.390;6.136;2024-01-30T09:30:43;102499.16;;;10.68;100.00
37202;BME280;37799;52.390;6.136;2024-01-30T09:33:09;102504.38;;;10.58;100.00
37202;BME280;37799;52.390;6.136;2024-01-30T09:35:35;102501.78;;;10.72;100.00
37202;BME280;37799;52.390;6.136;2024-01-30T09:38:01;102506.09;;;10.72;100.00
37202;BME280;37799;52.390;6.136;2024-01-30T09:40:26;102502.63;;;10.89;100.00
37202;BME280;37799;52.390;6.136;2024-01-30T09:42:53;102506.09;;;10.70;100.00
37202;BME280;37799;52.390;6.136;2024-01-30T09:45:20;102506.94;;;10.78;100.00
37202;BME280;37799;52.390;6.136;2024-01-30T09:47:48;102506.97;;;10.72;100.00
37202;BME280;37799;52.390;6.136;2024-01-30T09:50:14;102514.72;;;10.80;100.00
37202;BME280;37799;52.390;6.136;2024-01-30T09:52:40;102512.13;;;10.90;100.00
37202;BME280;37799;52.390;6.136;2024-01-30T09:55:06;102512.09;;;11.15;100.00
37202;BME280;37799;52.390;6.136;2024-01-30T09:57:32;102515.56;;;11.12;100.00
37202;BME280;37799;52.390;6.136;2024-01-30T09:59:57;102518.16;;;11.25;100.00
37202;BME280;37799;52.390;6.136;2024-01-30T10:02:23;102513.84;;;11.23;100.00
37202;BME280;37799;52.390;6.136;2024-01-30T10:04:49;102518.97;;;11.43;100.00
37202;BME280;37799;52.390;6.136;2024-01-30T10:07:15;102514.66;;;11.29;100.00
37202;BME280;37799;52.390;6.136;2024-01-30T10:09:41;102521.53;;;11.51;100.00
37202;BME280;37799;52.390;6.136;2024-01-30T10:12:07;102522.38;;;11.55;100.00
37202;BME280;37799;52.390;6.136;2024-01-30T10:14:33;102523.31;;;11.46;100.00
37202;BME280;37799;52.390;6.136;2024-01-30T10:16:59;102518.88;;;11.75;100.00
37202;BME280;37799;52.390;6.136;2024-01-30T10:19:24;102535.34;;;11.61;100.00
37202;BME280;37799;52.390;6.136;2024-01-30T10:21:50;102523.19;;;11.76;100.00
37202;BME280;37799;52.390;6.136;2024-01-30T10:24:15;102516.28;;;11.69;100.00
37202;BME280;37799;52.390;6.136;2024-01-30T10:26:43;102536.22;;;11.60;100.00
37202;BME280;37799;52.390;6.136;2024-01-30T10:29:09;102520.59;;;11.78;100.00
37202;BME280;37799;52.390;6.136;2024-01-30T10:31:34;102538.78;;;11.67;100.00
37202;BME280;37799;52.390;6.136;2024-01-30T10:34:00;102530.09;;;11.90;100.00
37202;BME280;37799;52.390;6.136;2024-01-30T10:36:28;102530.94;;;11.84;100.00
37202;BME280;37799;52.390;6.136;2024-01-30T10:38:59;102533.53;;;11.90;100.00
37202;BME280;37799;52.390;6.136;2024-01-30T10:41:31;102533.56;;;11.70;100.00
37202;BME280;37799;52.390;6.136;2024-01-30T10:44:08;102526.66;;;11.74;100.00
37202;BME280;37799;52.390;6.136;2024-01-30T10:46:35;102515.38;;;11.78;100.00
37202;BME280;37799;52.390;6.136;2024-01-30T10:49:00;102515.44;;;11.67;100.00
37202;BME280;37799;52.390;6.136;2024-01-30T10:51:26;102521.44;;;11.83;100.00
37202;BME280;37799;52.390;6.136;2024-01-30T10:53:52;102525.81;;;11.73;100.00
37202;BME280;37799;52.390;6.136;2024-01-30T10:56:20;102528.31;;;12.01;100.00
37202;BME280;37799;52.390;6.136;2024-01-30T10:58:47;102523.13;;;12.01;100.00
37202;BME280;37799;52.390;6.136;2024-01-30T11:01:13;102533.50;;;11.98;100.00
37202;BME280;37799;52.390;6.136;2024-01-30T11:03:39;102520.56;;;11.84;100.00
37202;BME280;37799;52.390;6.136;2024-01-30T11:06:11;102533.50;;;11.99;100.00
37202;BME280;37799;52.390;6.136;2024-01-30T11:08:39;102542.19;;;11.91;100.00
37202;BME280;37799;52.390;6.136;2024-01-30T11:11:08;102527.50;;;11.87;100.00
37202;BME280;37799;52.390;6.136;2024-01-30T11:13:34;102525.81;;;11.64;100.00
37202;BME280;37799;52.390;6.136;2024-01-30T11:16:04;102536.97;;;11.94;100.00
37202;BME280;37799;52.390;6.136;2024-01-30T11:18:31;102552.53;;;12.00;100.00
37202;BME280;37799;52.390;6.136;2024-01-30T11:21:00;102556.03;;;11.90;100.00
37202;BME280;37799;52.390;6.136;2024-01-30T11:23:29;102541.31;;;11.93;100.00
37202;BME280;37799;52.390;6.136;2024-01-30T11:25:56;102536.97;;;11.98;100.00
37202;BME280;37799;52.390;6.136;2024-01-30T11:28:22;102540.47;;;11.88;100.00
37202;BME280;37799;52.390;6.136;2024-01-30T11:30:47;102532.63;;;12.02;100.00
37202;BME280;37799;52.390;6.136;2024-01-30T11:33:27;102536.16;;;11.87;100.00
37202;BME280;37799;52.390;6.136;2024-01-30T11:35:53;102535.22;;;11.97;100.00
37202;BME280;37799;52.390;6.136;2024-01-30T11:38:18;102544.72;;;12.04;100.00
37202;BME280;37799;52.390;6.136;2024-01-30T11:40:43;102529.97;;;12.08;100.00
37202;BME280;37799;52.390;6.136;2024-01-30T11:43:09;102529.94;;;12.17;100.00
37202;BME280;37799;52.390;6.136;2024-01-30T11:45:35;102534.19;;;12.32;100.00
37202;BME280;37799;52.390;6.136;2024-01-30T11:48:01;102524.63;;;12.35;100.00
37202;BME280;37799;52.390;6.136;2024-01-30T11:50:29;102540.16;;;12.45;100.00
37202;BME280;37799;52.390;6.136;2024-01-30T11:52:55;102528.88;;;12.52;100.00
37202;BME280;37799;52.390;6.136;2024-01-30T11:55:20;102521.00;;;12.64;100.00
37202;BME280;37799;52.390;6.136;2024-01-30T11:57:45;102545.19;;;12.69;100.00
37202;BME280;37799;52.390;6.136;2024-01-30T12:00:14;102530.53;;;12.60;100.00
37202;BME280;37799;52.390;6.136;2024-01-30T12:02:40;102523.75;;;12.39;100.00
37202;BME280;37799;52.390;6.136;2024-01-30T12:05:06;102528.03;;;12.47;100.00
37202;BME280;37799;52.390;6.136;2024-01-30T12:07:33;102523.78;;;12.32;100.00
37202;BME280;37799;52.390;6.136;2024-01-30T12:09:58;102531.50;;;12.46;100.00
37202;BME280;37799;52.390;6.136;2024-01-30T12:12:28;102524.59;;;12.42;100.00
37202;BME280;37799;52.390;6.136;2024-01-30T12:14:54;102528.88;;;12.50;100.00
37202;BME280;37799;52.390;6.136;2024-01-30T12:17:31;102528.66;;;12.79;100.00
37202;BME280;37799;52.390;6.136;2024-01-30T12:22:29;102543.16;;;13.06;100.00
37202;BME280;37799;52.390;6.136;2024-01-30T12:24:54;102548.38;;;13.05;100.00
37202;BME280;37799;52.390;6.136;2024-01-30T12:27:19;102548.38;;;13.02;100.00
37202;BME280;37799;52.390;6.136;2024-01-30T12:29:45;102547.50;;;13.01;100.00
37202;BME280;37799;52.390;6.136;2024-01-30T12:32:15;102548.53;;;12.83;100.00
37202;BME280;37799;52.390;6.136;2024-01-30T12:34:41;102552.09;;;12.76;100.00
37202;BME280;37799;52.390;6.136;2024-01-30T12:37:07;102552.25;;;12.47;100.00
37202;BME280;37799;52.390;6.136;2024-01-30T12:39:34;102570.56;;;12.29;100.00
37202;BME280;37799;52.390;6.136;2024-01-30T12:42:00;102560.28;;;12.09;100.00